Arrington Corner, Kentucky
Current Conditions -  °F | °C
As of 12:56 PM on Sunday 23 Nov 2014 (Local Time) from KOWB Reporting Station
Light Rain Light Rain  
Wind Chill: 58°   Ceiling: 2100
Heat Index: 58°   Visibility: 7mi
Dew Point: 55°   Wind: 13mph
Humidity: 90%   Direction: 160°SSE
Pressure: 29.58"   Gusts: NA
Location:  37.8331°N, 86.7635°W
Report Text: KOWB 231856Z 16011KT 7SM -RA OVC021 14/13 A2958 RMK AO2 T01440127 RAE17B51 P0001 SLP016
Loading
Personal Weather Stations






























Interactive Weather Map New forecast layout! Learn more

10-Day Weather Forecast

Advertisements
Track Severe Weather on mobile